sensor_id;sensor_type;location;lat;lon;timestamp;pressure;altitude;pressure_sealevel;temperature;humidity
42633;BME280;28261;53.304;-6.284;2022-08-19T00:01:50;100648.78;;;14.52;66.53
42633;BME280;28261;53.304;-6.284;2022-08-19T00:03:54;100642.00;;;14.48;66.46
42633;BME280;28261;53.304;-6.284;2022-08-19T00:05:58;100641.31;;;14.46;66.56
42633;BME280;28261;53.304;-6.284;2022-08-19T00:08:02;100640.44;;;14.46;66.89
42633;BME280;28261;53.304;-6.284;2022-08-19T00:10:12;100648.56;;;14.44;67.08
42633;BME280;28261;53.304;-6.284;2022-08-19T00:12:17;100650.53;;;14.42;67.35
42633;BME280;28261;53.304;-6.284;2022-08-19T00:14:22;100655.88;;;14.42;67.50
42633;BME280;28261;53.304;-6.284;2022-08-19T00:16:26;100663.16;;;14.40;67.70
42633;BME280;28261;53.304;-6.284;2022-08-19T00:18:30;100655.28;;;14.38;68.04
42633;BME280;28261;53.304;-6.284;2022-08-19T00:20:34;100655.28;;;14.38;67.92
42633;BME280;28261;53.304;-6.284;2022-08-19T00:22:38;100655.28;;;14.38;67.95
42633;BME280;28261;53.304;-6.284;2022-08-19T00:24:43;100657.13;;;14.38;68.38
42633;BME280;28261;53.304;-6.284;2022-08-19T00:26:52;100658.09;;;14.37;68.72
42633;BME280;28261;53.304;-6.284;2022-08-19T00:28:58;100654.69;;;14.35;68.62
42633;BME280;28261;53.304;-6.284;2022-08-19T00:31:03;100659.19;;;14.34;69.41
42633;BME280;28261;53.304;-6.284;2022-08-19T00:33:07;100657.47;;;14.33;69.59
42633;BME280;28261;53.304;-6.284;2022-08-19T00:35:11;100653.00;;;14.34;69.46
42633;BME280;28261;53.304;-6.284;2022-08-19T00:37:14;100659.19;;;14.34;69.88
42633;BME280;28261;53.304;-6.284;2022-08-19T00:39:18;100661.00;;;14.34;70.32
42633;BME280;28261;53.304;-6.284;2022-08-19T00:41:23;100663.69;;;14.34;70.39
42633;BME280;28261;53.304;-6.284;2022-08-19T00:43:27;100657.47;;;14.33;70.63
42633;BME280;28261;53.304;-6.284;2022-08-19T00:45:32;100645.97;;;14.33;70.49
42633;BME280;28261;53.304;-6.284;2022-08-19T00:47:37;100658.59;;;14.31;70.67
42633;BME280;28261;53.304;-6.284;2022-08-19T00:49:45;100656.91;;;14.30;71.02
42633;BME280;28261;53.304;-6.284;2022-08-19T00:51:58;100657.88;;;14.29;71.13
42633;BME280;28261;53.304;-6.284;2022-08-19T00:54:03;100659.69;;;14.28;71.00
42633;BME280;28261;53.304;-6.284;2022-08-19T00:56:07;100662.47;;;14.27;71.52
42633;BME280;28261;53.304;-6.284;2022-08-19T00:58:14;100661.91;;;14.23;71.32
42633;BME280;28261;53.304;-6.284;2022-08-19T01:00:19;100653.03;;;14.22;71.40
42633;BME280;28261;53.304;-6.284;2022-08-19T01:02:26;100646.03;;;14.21;71.66
42633;BME280;28261;53.304;-6.284;2022-08-19T01:04:30;100643.38;;;14.21;71.89
42633;BME280;28261;53.304;-6.284;2022-08-19T01:06:35;100642.66;;;14.19;71.97
42633;BME280;28261;53.304;-6.284;2022-08-19T01:08:40;100648.94;;;14.18;72.18
42633;BME280;28261;53.304;-6.284;2022-08-19T01:10:45;100649.22;;;14.15;72.74
42633;BME280;28261;53.304;-6.284;2022-08-19T01:12:51;100656.75;;;14.10;72.67
42633;BME280;28261;53.304;-6.284;2022-08-19T01:14:55;100651.53;;;14.09;72.85
42633;BME280;28261;53.304;-6.284;2022-08-19T01:17:00;100649.72;;;14.09;72.88
42633;BME280;28261;53.304;-6.284;2022-08-19T01:19:10;100655.31;;;14.06;72.95
42633;BME280;28261;53.304;-6.284;2022-08-19T01:21:27;100662.59;;;14.04;73.11
42633;BME280;28261;53.304;-6.284;2022-08-19T01:23:34;100657.50;;;14.01;73.80
42633;BME280;28261;53.304;-6.284;2022-08-19T01:25:52;100666.47;;;14.00;73.73
42633;BME280;28261;53.304;-6.284;2022-08-19T01:27:59;100662.25;;;13.97;74.10
42633;BME280;28261;53.304;-6.284;2022-08-19T01:30:14;100657.75;;;13.98;74.17
42633;BME280;28261;53.304;-6.284;2022-08-19T01:32:18;100662.25;;;13.97;74.47
42633;BME280;28261;53.304;-6.284;2022-08-19T01:34:34;100657.88;;;13.96;73.76
42633;BME280;28261;53.304;-6.284;2022-08-19T01:36:40;100664.91;;;13.97;74.03
42633;BME280;28261;53.304;-6.284;2022-08-19T01:38:46;100661.38;;;13.97;74.03
42633;BME280;28261;53.304;-6.284;2022-08-19T01:40:50;100663.22;;;13.96;74.85
42633;BME280;28261;53.304;-6.284;2022-08-19T01:42:54;100659.72;;;13.96;74.61
42633;BME280;28261;53.304;-6.284;2022-08-19T01:44:58;100660.69;;;13.95;74.77
42633;BME280;28261;53.304;-6.284;2022-08-19T01:47:03;100661.66;;;13.94;75.22
42633;BME280;28261;53.304;-6.284;2022-08-19T01:49:07;100662.50;;;13.94;75.35
42633;BME280;28261;53.304;-6.284;2022-08-19T01:51:12;100658.84;;;13.95;75.35
42633;BME280;28261;53.304;-6.284;2022-08-19T01:53:16;100664.06;;;13.97;75.29
42633;BME280;28261;53.304;-6.284;2022-08-19T01:55:21;100658.50;;;14.00;75.21
42633;BME280;28261;53.304;-6.284;2022-08-19T01:57:25;100664.78;;;13.99;75.60
42633;BME280;28261;53.304;-6.284;2022-08-19T01:59:29;100664.78;;;13.99;75.15
42633;BME280;28261;53.304;-6.284;2022-08-19T02:01:33;100662.94;;;13.99;75.35
42633;BME280;28261;53.304;-6.284;2022-08-19T02:03:36;100662.00;;;14.00;75.40
42633;BME280;28261;53.304;-6.284;2022-08-19T02:05:41;100666.22;;;14.03;75.34
42633;BME280;28261;53.304;-6.284;2022-08-19T02:07:44;100670.47;;;14.05;75.30
42633;BME280;28261;53.304;-6.284;2022-08-19T02:09:48;100660.63;;;14.06;74.97
42633;BME280;28261;53.304;-6.284;2022-08-19T02:11:53;100669.22;;;14.10;74.73
42633;BME280;28261;53.304;-6.284;2022-08-19T02:13:56;100666.56;;;14.10;74.87
42633;BME280;28261;53.304;-6.284;2022-08-19T02:16:00;100669.09;;;14.11;74.54
42633;BME280;28261;53.304;-6.284;2022-08-19T02:18:08;100674.44;;;14.11;74.84
42633;BME280;28261;53.304;-6.284;2022-08-19T02:20:11;100665.47;;;14.12;74.51
42633;BME280;28261;53.304;-6.284;2022-08-19T02:22:15;100673.59;;;14.11;74.82
42633;BME280;28261;53.304;-6.284;2022-08-19T02:24:18;100670.06;;;14.10;74.78
42633;BME280;28261;53.304;-6.284;2022-08-19T02:26:21;100675.66;;;14.07;75.12
42633;BME280;28261;53.304;-6.284;2022-08-19T02:28:26;100673.25;;;14.04;74.84
42633;BME280;28261;53.304;-6.284;2022-08-19T02:30:30;100671.81;;;14.00;75.33
42633;BME280;28261;53.304;-6.284;2022-08-19T02:32:33;100665.63;;;13.99;75.42
42633;BME280;28261;53.304;-6.284;2022-08-19T02:34:46;100662.63;;;13.93;75.42
42633;BME280;28261;53.304;-6.284;2022-08-19T02:36:49;100658.41;;;13.90;75.97
42633;BME280;28261;53.304;-6.284;2022-08-19T02:38:54;100662.03;;;13.89;76.54
42633;BME280;28261;53.304;-6.284;2022-08-19T02:40:59;100652.22;;;13.90;76.49
42633;BME280;28261;53.304;-6.284;2022-08-19T02:43:04;100656.72;;;13.89;76.83
42633;BME280;28261;53.304;-6.284;2022-08-19T02:45:10;100659.25;;;13.91;76.30
42633;BME280;28261;53.304;-6.284;2022-08-19T02:47:14;100645.91;;;13.91;76.94
42633;BME280;28261;53.304;-6.284;2022-08-19T02:49:18;100650.28;;;13.92;76.71
42633;BME280;28261;53.304;-6.284;2022-08-19T02:51:24;100648.72;;;13.89;76.52
42633;BME280;28261;53.304;-6.284;2022-08-19T02:53:28;100644.47;;;13.86;76.80
42633;BME280;28261;53.304;-6.284;2022-08-19T02:55:32;100646.31;;;13.86;76.39
42633;BME280;28261;53.304;-6.284;2022-08-19T02:57:47;100650.06;;;13.83;77.14
42633;BME280;28261;53.304;-6.284;2022-08-19T02:59:51;100645.84;;;13.81;76.72
42633;BME280;28261;53.304;-6.284;2022-08-19T03:01:56;100657.59;;;13.78;76.93
42633;BME280;28261;53.304;-6.284;2022-08-19T03:04:02;100651.53;;;13.76;77.19
42633;BME280;28261;53.304;-6.284;2022-08-19T03:06:10;100656.97;;;13.75;77.34
42633;BME280;28261;53.304;-6.284;2022-08-19T03:08:14;100660.75;;;13.72;77.31
42633;BME280;28261;53.304;-6.284;2022-08-19T03:10:18;100665.34;;;13.70;77.10
42633;BME280;28261;53.304;-6.284;2022-08-19T03:12:22;100668.03;;;13.70;77.43
42633;BME280;28261;53.304;-6.284;2022-08-19T03:14:25;100658.34;;;13.69;77.63
42633;BME280;28261;53.304;-6.284;2022-08-19T03:16:34;100653.00;;;13.69;78.06
42633;BME280;28261;53.304;-6.284;2022-08-19T03:18:40;100653.97;;;13.68;77.68
42633;BME280;28261;53.304;-6.284;2022-08-19T03:20:45;100652.28;;;13.67;78.10
42633;BME280;28261;53.304;-6.284;2022-08-19T03:22:49;100658.59;;;13.66;77.52
42633;BME280;28261;53.304;-6.284;2022-08-19T03:24:53;100658.72;;;13.64;77.49
42633;BME280;28261;53.304;-6.284;2022-08-19T03:26:57;100665.84;;;13.64;77.84
42633;BME280;28261;53.304;-6.284;2022-08-19T03:29:02;100671.44;;;13.61;77.58
42633;BME280;28261;53.304;-6.284;2022-08-19T03:31:09;100665.38;;;13.59;78.49
42633;BME280;28261;53.304;-6.284;2022-08-19T03:33:34;100669.16;;;13.56;77.87
42633;BME280;28261;53.304;-6.284;2022-08-19T03:35:39;100668.28;;;13.56;78.37
42633;BME280;28261;53.304;-6.284;2022-08-19T03:37:43;100672.78;;;13.55;78.06
42633;BME280;28261;53.304;-6.284;2022-08-19T03:39:46;100670.22;;;13.53;78.58
42633;BME280;28261;53.304;-6.284;2022-08-19T03:41:52;100662.38;;;13.52;78.36
42633;BME280;28261;53.304;-6.284;2022-08-19T03:44:21;100661.38;;;13.53;78.16
42633;BME280;28261;53.304;-6.284;2022-08-19T03:46:27;100653.50;;;13.51;78.34
42633;BME280;28261;53.304;-6.284;2022-08-19T03:48:32;100649.28;;;13.49;78.65
42633;BME280;28261;53.304;-6.284;2022-08-19T03:50:40;100655.47;;;13.49;78.94
42633;BME280;28261;53.304;-6.284;2022-08-19T03:52:48;100651.09;;;13.48;78.52
42633;BME280;28261;53.304;-6.284;2022-08-19T03:54:52;100657.41;;;13.47;78.62
42633;BME280;28261;53.304;-6.284;2022-08-19T03:56:57;100657.53;;;13.46;78.90
42633;BME280;28261;53.304;-6.284;2022-08-19T03:59:02;100652.19;;;13.46;79.26
42633;BME280;28261;53.304;-6.284;2022-08-19T04:01:07;100646.03;;;13.45;78.96
42633;BME280;28261;53.304;-6.284;2022-08-19T04:03:11;100651.38;;;13.45;79.04
42633;BME280;28261;53.304;-6.284;2022-08-19T04:05:15;100649.66;;;13.44;79.85
42633;BME280;28261;53.304;-6.284;2022-08-19T04:07:20;100646.03;;;13.45;79.46
42633;BME280;28261;53.304;-6.284;2022-08-19T04:09:24;100656.81;;;13.44;79.39
42633;BME280;28261;53.304;-6.284;2022-08-19T04:11:30;100647.97;;;13.43;80.13
42633;BME280;28261;53.304;-6.284;2022-08-19T04:13:45;100654.25;;;13.42;79.99
42633;BME280;28261;53.304;-6.284;2022-08-19T04:15:48;100655.94;;;13.43;79.82
42633;BME280;28261;53.304;-6.284;2022-08-19T04:17:52;100658.63;;;13.43;80.05
42633;BME280;28261;53.304;-6.284;2022-08-19T04:19:56;100663.94;;;13.43;79.46
42633;BME280;28261;53.304;-6.284;2022-08-19T04:22:01;100660.56;;;13.41;79.56
42633;BME280;28261;53.304;-6.284;2022-08-19T04:24:09;100653.66;;;13.39;79.88
42633;BME280;28261;53.304;-6.284;2022-08-19T04:26:13;100659.13;;;13.37;80.22
42633;BME280;28261;53.304;-6.284;2022-08-19T04:28:17;100657.41;;;13.36;80.55
42633;BME280;28261;53.304;-6.284;2022-08-19T04:30:21;100658.25;;;13.36;80.36
42633;BME280;28261;53.304;-6.284;2022-08-19T04:32:24;100653.78;;;13.37;80.09
42633;BME280;28261;53.304;-6.284;2022-08-19T04:34:29;100655.81;;;13.33;79.86
42633;BME280;28261;53.304;-6.284;2022-08-19T04:36:34;100660.31;;;13.33;79.97
42633;BME280;28261;53.304;-6.284;2022-08-19T04:38:38;100659.56;;;13.31;80.64
42633;BME280;28261;53.304;-6.284;2022-08-19T04:40:46;100659.69;;;13.29;79.99
42633;BME280;28261;53.304;-6.284;2022-08-19T04:43:07;100652.66;;;13.28;80.80
42633;BME280;28261;53.304;-6.284;2022-08-19T04:45:16;100651.09;;;13.26;81.28
42633;BME280;28261;53.304;-6.284;2022-08-19T04:47:23;100664.53;;;13.24;80.97
42633;BME280;28261;53.304;-6.284;2022-08-19T04:49:47;100658.38;;;13.24;80.77
42633;BME280;28261;53.304;-6.284;2022-08-19T04:51:53;100666.22;;;13.25;80.96
42633;BME280;28261;53.304;-6.284;2022-08-19T04:53:57;100667.06;;;13.26;80.61
42633;BME280;28261;53.304;-6.284;2022-08-19T04:56:07;100662.59;;;13.26;80.32
42633;BME280;28261;53.304;-6.284;2022-08-19T04:58:11;100661.75;;;13.26;80.58
42633;BME280;28261;53.304;-6.284;2022-08-19T05:00:16;100660.91;;;13.25;80.97
42633;BME280;28261;53.304;-6.284;2022-08-19T05:02:20;100670.72;;;13.25;80.11
42633;BME280;28261;53.304;-6.284;2022-08-19T05:04:25;100673.50;;;13.23;80.13
42633;BME280;28261;53.304;-6.284;2022-08-19T05:06:31;100670.09;;;13.21;80.78
42633;BME280;28261;53.304;-6.284;2022-08-19T05:08:36;100677.25;;;13.20;80.47
42633;BME280;28261;53.304;-6.284;2022-08-19T05:10:42;100683.53;;;13.19;80.48
42633;BME280;28261;53.304;-6.284;2022-08-19T05:12:47;100674.81;;;13.17;80.88
42633;BME280;28261;53.304;-6.284;2022-08-19T05:14:51;100687.41;;;13.15;80.60
42633;BME280;28261;53.304;-6.284;2022-08-19T05:16:54;100684.00;;;13.13;80.95
42633;BME280;28261;53.304;-6.284;2022-08-19T05:19:18;100686.53;;;13.15;80.89
42633;BME280;28261;53.304;-6.284;2022-08-19T05:21:40;100680.38;;;13.14;81.15
42633;BME280;28261;53.304;-6.284;2022-08-19T05:24:02;100686.44;;;13.16;80.49
42633;BME280;28261;53.304;-6.284;2022-08-19T05:26:11;100674.81;;;13.17;80.54
42633;BME280;28261;53.304;-6.284;2022-08-19T05:28:16;100673.00;;;13.18;80.98
42633;BME280;28261;53.304;-6.284;2022-08-19T05:30:19;100688.13;;;13.17;80.91
42633;BME280;28261;53.304;-6.284;2022-08-19T05:32:43;100691.78;;;13.16;81.33
42633;BME280;28261;53.304;-6.284;2022-08-19T05:34:47;100686.53;;;13.15;80.99
42633;BME280;28261;53.304;-6.284;2022-08-19T05:36:51;100678.56;;;13.15;81.37
42633;BME280;28261;53.304;-6.284;2022-08-19T05:38:59;100683.78;;;13.16;80.94
42633;BME280;28261;53.304;-6.284;2022-08-19T05:41:07;100681.34;;;13.13;81.80
42633;BME280;28261;53.304;-6.284;2022-08-19T05:43:10;100684.00;;;13.13;81.17
42633;BME280;28261;53.304;-6.284;2022-08-19T05:45:15;100688.38;;;13.14;81.17
42633;BME280;28261;53.304;-6.284;2022-08-19T05:47:19;100686.53;;;13.15;81.22
42633;BME280;28261;53.304;-6.284;2022-08-19T05:49:24;100692.47;;;13.18;81.45
42633;BME280;28261;53.304;-6.284;2022-08-19T05:51:29;100694.91;;;13.21;81.37
42633;BME280;28261;53.304;-6.284;2022-08-19T05:53:33;100696.47;;;13.24;81.07
42633;BME280;28261;53.304;-6.284;2022-08-19T05:55:38;100694.56;;;13.26;81.42
42633;BME280;28261;53.304;-6.284;2022-08-19T05:57:42;100698.78;;;13.29;81.58
42633;BME280;28261;53.304;-6.284;2022-08-19T05:59:45;100705.78;;;13.30;81.66
42633;BME280;28261;53.304;-6.284;2022-08-19T06:01:55;100711.72;;;13.33;81.26
42633;BME280;28261;53.304;-6.284;2022-08-19T06:03:59;100712.38;;;13.37;81.68
42633;BME280;28261;53.304;-6.284;2022-08-19T06:06:03;100726.16;;;13.42;81.53
42633;BME280;28261;53.304;-6.284;2022-08-19T06:08:07;100714.19;;;13.48;81.32
42633;BME280;28261;53.304;-6.284;2022-08-19T06:10:11;100708.59;;;13.51;80.41
42633;BME280;28261;53.304;-6.284;2022-08-19T06:12:14;100712.72;;;13.55;80.19
42633;BME280;28261;53.304;-6.284;2022-08-19T06:14:21;100703.50;;;13.59;80.62
42633;BME280;28261;53.304;-6.284;2022-08-19T06:16:29;100706.66;;;13.64;80.50
42633;BME280;28261;53.304;-6.284;2022-08-19T06:18:37;100704.94;;;13.75;80.45
42633;BME280;28261;53.304;-6.284;2022-08-19T06:20:41;100710.31;;;14.07;79.59
42633;BME280;28261;53.304;-6.284;2022-08-19T06:22:57;100713.34;;;14.67;75.99
42633;BME280;28261;53.304;-6.284;2022-08-19T06:25:01;100715.94;;;14.79;74.76
42633;BME280;28261;53.304;-6.284;2022-08-19T06:27:06;100726.28;;;14.72;74.97
42633;BME280;28261;53.304;-6.284;2022-08-19T06:29:11;100736.25;;;14.70;75.15
42633;BME280;28261;53.304;-6.284;2022-08-19T06:31:26;100740.56;;;14.82;74.80
42633;BME280;28261;53.304;-6.284;2022-08-19T06:33:30;100735.09;;;15.36;73.81
42633;BME280;28261;53.304;-6.284;2022-08-19T06:35:40;100747.47;;;16.38;69.83
42633;BME280;28261;53.304;-6.284;2022-08-19T06:37:43;100743.50;;;17.01;66.08
42633;BME280;28261;53.304;-6.284;2022-08-19T06:39:48;100743.78;;;16.98;65.58
42633;BME280;28261;53.304;-6.284;2022-08-19T06:41:54;100743.22;;;16.65;66.26
42633;BME280;28261;53.304;-6.284;2022-08-19T06:44:04;100747.59;;;16.85;66.38
42633;BME280;28261;53.304;-6.284;2022-08-19T06:46:15;100745.41;;;17.56;64.01
42633;BME280;28261;53.304;-6.284;2022-08-19T06:48:20;100744.84;;;18.36;61.51
42633;BME280;28261;53.304;-6.284;2022-08-19T06:50:27;100739.34;;;19.08;58.56
42633;BME280;28261;53.304;-6.284;2022-08-19T06:52:34;100741.69;;;19.72;56.93
42633;BME280;28261;53.304;-6.284;2022-08-19T06:54:49;100746.09;;;20.32;55.01
42633;BME280;28261;53.304;-6.284;2022-08-19T06:56:58;100734.00;;;20.77;53.84
42633;BME280;28261;53.304;-6.284;2022-08-19T06:59:05;100741.00;;;21.20;52.10
42633;BME280;28261;53.304;-6.284;2022-08-19T07:01:10;100736.22;;;21.46;51.26
42633;BME280;28261;53.304;-6.284;2022-08-19T07:03:13;100745.78;;;21.66;50.24
42633;BME280;28261;53.304;-6.284;2022-08-19T07:05:17;100738.47;;;21.74;49.54
42633;BME280;28261;53.304;-6.284;2022-08-19T07:07:21;100742.63;;;21.85;49.57
42633;BME280;28261;53.304;-6.284;2022-08-19T07:09:26;100742.97;;;21.90;48.86
42633;BME280;28261;53.304;-6.284;2022-08-19T07:11:31;100744.78;;;21.98;48.79
42633;BME280;28261;53.304;-6.284;2022-08-19T07:13:36;100749.09;;;22.07;48.37
42633;BME280;28261;53.304;-6.284;2022-08-19T07:15:40;100744.19;;;22.11;48.36
42633;BME280;28261;53.304;-6.284;2022-08-19T07:17:44;100749.75;;;22.41;48.17
42633;BME280;28261;53.304;-6.284;2022-08-19T07:19:53;100742.41;;;22.50;48.17
42633;BME280;28261;53.304;-6.284;2022-08-19T07:22:00;100755.03;;;22.03;48.69
42633;BME280;28261;53.304;-6.284;2022-08-19T07:24:05;100762.09;;;21.16;50.38
42633;BME280;28261;53.304;-6.284;2022-08-19T07:26:13;100764.47;;;20.53;51.50
42633;BME280;28261;53.304;-6.284;2022-08-19T07:28:16;100763.38;;;20.21;52.58
42633;BME280;28261;53.304;-6.284;2022-08-19T07:30:25;100769.34;;;19.82;53.49
42633;BME280;28261;53.304;-6.284;2022-08-19T07:32:29;100767.16;;;19.86;53.35
42633;BME280;28261;53.304;-6.284;2022-08-19T07:34:33;100771.25;;;19.98;53.44
42633;BME280;28261;53.304;-6.284;2022-08-19T07:36:42;100768.16;;;20.44;52.54
42633;BME280;28261;53.304;-6.284;2022-08-19T07:38:47;100763.78;;;20.68;51.98
42633;BME280;28261;53.304;-6.284;2022-08-19T07:40:51;100764.78;;;20.58;51.64
42633;BME280;28261;53.304;-6.284;2022-08-19T07:42:57;100749.28;;;20.36;52.05
42633;BME280;28261;53.304;-6.284;2022-08-19T07:45:01;100760.91;;;20.61;51.60
42633;BME280;28261;53.304;-6.284;2022-08-19T07:47:05;100753.03;;;20.84;50.74
42633;BME280;28261;53.304;-6.284;2022-08-19T07:49:29;100770.09;;;21.49;49.05
42633;BME280;28261;53.304;-6.284;2022-08-19T07:51:32;100764.47;;;22.07;48.25
42633;BME280;28261;53.304;-6.284;2022-08-19T07:53:37;100767.34;;;22.60;46.34
42633;BME280;28261;53.304;-6.284;2022-08-19T07:55:41;100771.09;;;22.74;46.06
42633;BME280;28261;53.304;-6.284;2022-08-19T07:57:45;100778.25;;;22.90;45.80
42633;BME280;28261;53.304;-6.284;2022-08-19T07:59:50;100779.38;;;22.95;45.19
42633;BME280;28261;53.304;-6.284;2022-08-19T08:01:53;100773.59;;;22.98;45.31
42633;BME280;28261;53.304;-6.284;2022-08-19T08:03:57;100776.47;;;22.97;45.66
42633;BME280;28261;53.304;-6.284;2022-08-19T08:06:19;100782.59;;;22.91;45.80
42633;BME280;28261;53.304;-6.284;2022-08-19T08:08:40;100789.47;;;22.78;45.68
42633;BME280;28261;53.304;-6.284;2022-08-19T08:11:01;100799.97;;;22.27;46.38
42633;BME280;28261;53.304;-6.284;2022-08-19T08:13:08;100799.06;;;21.63;47.79
42633;BME280;28261;53.304;-6.284;2022-08-19T08:15:15;100797.81;;;21.02;49.61
42633;BME280;28261;53.304;-6.284;2022-08-19T08:17:25;100792.03;;;20.39;51.02
42633;BME280;28261;53.304;-6.284;2022-08-19T08:19:49;100795.91;;;19.85;52.78
42633;BME280;28261;53.304;-6.284;2022-08-19T08:21:53;100805.13;;;19.48;53.42
42633;BME280;28261;53.304;-6.284;2022-08-19T08:23:57;100789.25;;;19.10;54.37
42633;BME280;28261;53.304;-6.284;2022-08-19T08:26:05;100787.81;;;18.80;55.19
42633;BME280;28261;53.304;-6.284;2022-08-19T08:28:09;100788.09;;;18.51;56.25
42633;BME280;28261;53.304;-6.284;2022-08-19T08:30:23;100792.03;;;18.29;57.05
42633;BME280;28261;53.304;-6.284;2022-08-19T08:32:32;100805.53;;;18.19;57.45
42633;BME280;28261;53.304;-6.284;2022-08-19T08:34:36;100805.00;;;18.15;57.47
42633;BME280;28261;53.304;-6.284;2022-08-19T08:36:45;100807.13;;;18.12;57.88
42633;BME280;28261;53.304;-6.284;2022-08-19T08:38:49;100796.41;;;18.12;58.12
42633;BME280;28261;53.304;-6.284;2022-08-19T08:41:01;100805.59;;;18.09;57.69
42633;BME280;28261;53.304;-6.284;2022-08-19T08:43:18;100795.91;;;17.98;58.07
42633;BME280;28261;53.304;-6.284;2022-08-19T08:45:27;100796.91;;;17.87;58.32
42633;BME280;28261;53.304;-6.284;2022-08-19T08:47:44;100808.84;;;17.75;58.67
42633;BME280;28261;53.304;-6.284;2022-08-19T08:49:53;100801.09;;;17.72;59.13
42633;BME280;28261;53.304;-6.284;2022-08-19T08:52:03;100818.56;;;17.76;58.66
42633;BME280;28261;53.304;-6.284;2022-08-19T08:54:10;100811.22;;;17.78;59.08
42633;BME280;28261;53.304;-6.284;2022-08-19T08:56:16;100803.88;;;17.80;58.60
42633;BME280;28261;53.304;-6.284;2022-08-19T08:58:25;100809.06;;;17.91;58.22
42633;BME280;28261;53.304;-6.284;2022-08-19T09:00:34;100807.88;;;18.04;57.58
42633;BME280;28261;53.304;-6.284;2022-08-19T09:02:40;100806.81;;;18.15;57.57
42633;BME280;28261;53.304;-6.284;2022-08-19T09:04:44;100811.28;;;18.24;57.06
42633;BME280;28261;53.304;-6.284;2022-08-19T09:06:56;100805.84;;;18.34;56.80
42633;BME280;28261;53.304;-6.284;2022-08-19T09:09:23;100811.22;;;18.34;56.75
42633;BME280;28261;53.304;-6.284;2022-08-19T09:11:44;100798.19;;;18.21;56.75
42633;BME280;28261;53.304;-6.284;2022-08-19T09:14:02;100804.19;;;18.05;57.46
42633;BME280;28261;53.304;-6.284;2022-08-19T09:16:32;100809.31;;;17.98;57.76
42633;BME280;28261;53.304;-6.284;2022-08-19T09:18:41;100813.69;;;17.99;58.79
42633;BME280;28261;53.304;-6.284;2022-08-19T09:20:46;100807.72;;;18.05;58.71
42633;BME280;28261;53.304;-6.284;2022-08-19T09:22:50;100814.31;;;18.11;58.28
42633;BME280;28261;53.304;-6.284;2022-08-19T09:24:54;100816.09;;;18.20;58.22
42633;BME280;28261;53.304;-6.284;2022-08-19T09:26:59;100790.91;;;18.31;58.64
42633;BME280;28261;53.304;-6.284;2022-08-19T09:29:19;100806.56;;;18.36;58.25
42633;BME280;28261;53.304;-6.284;2022-08-19T09:31:25;100801.28;;;18.44;57.89
42633;BME280;28261;53.304;-6.284;2022-08-19T09:33:30;100802.34;;;18.51;57.28
42633;BME280;28261;53.304;-6.284;2022-08-19T09:35:34;100801.59;;;18.59;56.73
42633;BME280;28261;53.304;-6.284;2022-08-19T09:37:55;100802.50;;;18.68;56.21
42633;BME280;28261;53.304;-6.284;2022-08-19T09:40:01;100794.91;;;18.81;55.70
42633;BME280;28261;53.304;-6.284;2022-08-19T09:42:05;100791.81;;;18.94;55.50
42633;BME280;28261;53.304;-6.284;2022-08-19T09:44:21;100792.81;;;19.11;55.19
42633;BME280;28261;53.304;-6.284;2022-08-19T09:46:28;100794.91;;;19.25;53.85
42633;BME280;28261;53.304;-6.284;2022-08-19T09:48:35;100793.78;;;19.36;53.10
42633;BME280;28261;53.304;-6.284;2022-08-19T09:50:39;100784.38;;;19.32;52.41
42633;BME280;28261;53.304;-6.284;2022-08-19T09:52:53;100793.31;;;19.15;52.93
42633;BME280;28261;53.304;-6.284;2022-08-19T09:54:58;100784.31;;;18.98;52.79
42633;BME280;28261;53.304;-6.284;2022-08-19T09:57:08;100779.78;;;18.80;53.21
42633;BME280;28261;53.304;-6.284;2022-08-19T09:59:11;100803.66;;;18.65;53.73
42633;BME280;28261;53.304;-6.284;2022-08-19T10:01:18;100787.69;;;18.46;54.13
42633;BME280;28261;53.304;-6.284;2022-08-19T10:03:22;100786.38;;;18.32;54.58
42633;BME280;28261;53.304;-6.284;2022-08-19T10:05:32;100791.69;;;18.23;54.77
42633;BME280;28261;53.304;-6.284;2022-08-19T10:07:56;100781.38;;;18.19;55.16
42633;BME280;28261;53.304;-6.284;2022-08-19T10:10:06;100781.53;;;18.17;55.78
42633;BME280;28261;53.304;-6.284;2022-08-19T10:12:11;100783.66;;;18.14;55.79
42633;BME280;28261;53.304;-6.284;2022-08-19T10:14:21;100790.78;;;18.05;56.13
42633;BME280;28261;53.304;-6.284;2022-08-19T10:16:25;100792.91;;;18.01;56.18
42633;BME280;28261;53.304;-6.284;2022-08-19T10:18:31;100786.31;;;17.96;56.37
42633;BME280;28261;53.304;-6.284;2022-08-19T10:20:37;100789.31;;;17.92;56.48
42633;BME280;28261;53.304;-6.284;2022-08-19T10:22:44;100786.91;;;17.89;57.41
42633;BME280;28261;53.304;-6.284;2022-08-19T10:24:53;100787.72;;;17.90;57.68
42633;BME280;28261;53.304;-6.284;2022-08-19T10:26:57;100789.03;;;17.86;57.80
42633;BME280;28261;53.304;-6.284;2022-08-19T10:29:01;100792.84;;;17.83;58.33
42633;BME280;28261;53.304;-6.284;2022-08-19T10:31:07;100790.47;;;17.80;58.34
42633;BME280;28261;53.304;-6.284;2022-08-19T10:33:11;100785.00;;;17.72;57.98
42633;BME280;28261;53.304;-6.284;2022-08-19T10:35:36;100801.72;;;17.56;57.59
42633;BME280;28261;53.304;-6.284;2022-08-19T10:37:59;100795.66;;;17.44;57.62
42633;BME280;28261;53.304;-6.284;2022-08-19T10:40:07;100798.50;;;17.42;57.58
42633;BME280;28261;53.304;-6.284;2022-08-19T10:42:13;100786.94;;;17.42;57.13
42633;BME280;28261;53.304;-6.284;2022-08-19T10:44:18;100801.19;;;17.42;56.30
42633;BME280;28261;53.304;-6.284;2022-08-19T10:46:25;100807.41;;;17.43;56.52
42633;BME280;28261;53.304;-6.284;2022-08-19T10:48:29;100809.38;;;17.41;55.96
42633;BME280;28261;53.304;-6.284;2022-08-19T10:50:33;100804.31;;;17.38;56.21
42633;BME280;28261;53.304;-6.284;2022-08-19T10:52:53;100818.28;;;17.32;56.01
42633;BME280;28261;53.304;-6.284;2022-08-19T10:54:58;100818.41;;;17.30;55.88
42633;BME280;28261;53.304;-6.284;2022-08-19T10:57:19;100815.59;;;17.32;56.78